Time;durP1;ratioP1;P1;durP2;ratioP2;P2;SDS_P1;SDS_P2;PMS_P1;PMS_P2;Temp;Humidity;BMP_temperature;BMP_pressure;BME280_temperature;BME280_humidity;BME280_pressure;Samples;Min_cycle;Max_cycle;Signal;HPM_P1;HPM_P2
2021/07/16 00:12:01;;;;;;;2.23;2.07;;;19.80;99.90;;;;;;4886992;29;20520;-78
2021/07/16 00:29:36;;;;;;;2.53;2.33;;;19.70;99.90;;;;;;4870103;29;20461;-78
2021/07/16 00:34:50;;;;;;;3.60;2.93;;;19.70;99.90;;;;;;5575125;23;20561;-78
2021/07/16 00:41:21;;;;;;;3.40;3.10;;;19.60;99.90;;;;;;4884549;29;20437;-78
2021/07/16 00:44:21;;;;;;;3.87;3.17;;;19.60;99.90;;;;;;4930289;23;20538;-78
2021/07/16 00:50:43;;;;;;;8.30;5.90;;;19.60;99.90;;;;;;4870514;29;20462;-78
2021/07/16 01:14:20;;;;;;;7.17;6.10;;;19.50;99.90;;;;;;4794541;29;20481;-78
2021/07/16 01:20:58;;;;;;;8.77;6.50;;;19.50;99.90;;;;;;4802322;29;20421;-78
2021/07/16 01:33:05;;;;;;;5.90;5.30;;;19.40;99.90;;;;;;4928838;23;20495;-78
2021/07/16 01:39:27;;;;;;;6.20;4.10;;;19.40;99.90;;;;;;4895055;29;20442;-78
2021/07/16 01:44:35;;;;;;;3.97;3.63;;;19.30;99.90;;;;;;5178363;23;20562;-77
2021/07/16 01:47:01;;;;;;;4.57;4.17;;;19.30;99.90;;;;;;4842647;29;20485;-78
2021/07/16 01:49:28;;;;;;;4.23;3.83;;;19.30;99.90;;;;;;4835492;29;20420;-78
2021/07/16 01:51:56;;;;;;;4.23;3.90;;;19.30;99.90;;;;;;4841794;23;20588;-78
2021/07/16 02:01:54;;;;;;;3.73;3.37;;;19.30;99.90;;;;;;4919088;23;20476;-78
2021/07/16 02:09:18;;;;;;;6.53;5.33;;;19.20;99.90;;;;;;4869972;29;20558;-78
2021/07/16 02:18:51;;;;;;;8.63;5.77;;;19.10;99.90;;;;;;4876503;29;20899;-78
2021/07/16 02:21:22;;;;;;;6.87;5.30;;;19.20;99.90;;;;;;4864194;29;20461;-78
2021/07/16 02:28:17;;;;;;;6.30;5.53;;;19.20;99.90;;;;;;4846955;29;21064;-78
2021/07/16 02:31:24;;;;;;;8.23;6.83;;;19.10;99.90;;;;;;4829514;29;20487;-78
2021/07/16 02:33:50;;;;;;;7.23;6.20;;;19.10;99.90;;;;;;4831308;29;20467;-78
2021/07/16 02:36:43;;;;;;;7.17;5.70;;;19.10;99.90;;;;;;4829421;29;20445;-78
2021/07/16 02:39:30;;;;;;;7.83;6.13;;;19.10;99.90;;;;;;4860612;29;20214;-78
2021/07/16 02:42:51;;;;;;;9.73;6.67;;;19.10;99.90;;;;;;4895749;23;20498;-78
2021/07/16 02:45:19;;;;;;;8.30;7.27;;;19.10;99.90;;;;;;4861202;29;21065;-78
2021/07/16 02:48:14;;;;;;;11.80;9.97;;;19.00;99.90;;;;;;4840771;29;20487;-78
2021/07/16 02:50:42;;;;;;;10.50;7.80;;;19.00;99.90;;;;;;4833241;29;20554;-78
2021/07/16 02:56:47;;;;;;;9.40;7.77;;;19.00;99.90;;;;;;4851510;29;20864;-78
2021/07/16 02:59:12;;;;;;;9.73;8.73;;;19.00;99.90;;;;;;4817847;29;20455;-78
2021/07/16 03:01:58;;;;;;;9.90;7.57;;;19.00;99.90;;;;;;4803425;29;20507;-78
2021/07/16 03:04:27;;;;;;;9.80;7.50;;;19.00;99.90;;;;;;4831907;29;20227;-77
2021/07/16 03:06:53;;;;;;;8.03;6.80;;;19.00;99.90;;;;;;4817825;29;20982;-78
2021/07/16 03:09:19;;;;;;;8.20;6.47;;;18.90;99.90;;;;;;4818921;29;20558;-77
2021/07/16 03:11:46;;;;;;;7.00;5.73;;;19.00;99.90;;;;;;4853605;29;20614;-77
2021/07/16 03:14:12;;;;;;;10.27;5.63;;;18.90;99.90;;;;;;4862208;29;20245;-78
2021/07/16 03:16:38;;;;;;;7.83;5.60;;;18.90;99.90;;;;;;4862459;29;20547;-78
2021/07/16 03:19:04;;;;;;;5.20;4.50;;;18.90;99.90;;;;;;4838231;29;20463;-78
2021/07/16 03:21:31;;;;;;;5.83;4.80;;;18.90;99.90;;;;;;4840285;29;20487;-78
2021/07/16 03:23:57;;;;;;;6.37;4.53;;;18.90;99.90;;;;;;4823721;29;20458;-78
2021/07/16 03:26:22;;;;;;;6.20;5.20;;;18.90;99.90;;;;;;4849804;29;20501;-77
2021/07/16 03:29:08;;;;;;;4.40;4.03;;;18.90;99.90;;;;;;4849046;29;20317;-78
2021/07/16 03:31:34;;;;;;;4.67;4.20;;;18.80;99.90;;;;;;4865133;29;20602;-78
2021/07/16 03:34:12;;;;;;;5.80;5.00;;;18.80;99.90;;;;;;4821029;29;20458;-77
2021/07/16 03:36:38;;;;;;;7.27;5.63;;;18.80;99.90;;;;;;4837244;29;20311;-78
2021/07/16 03:39:05;;;;;;;4.87;4.30;;;18.80;99.90;;;;;;4811119;29;20494;-78
2021/07/16 03:44:22;;;;;;;5.50;4.57;;;18.80;99.90;;;;;;4857275;29;20587;-78
2021/07/16 03:46:48;;;;;;;7.10;5.63;;;18.80;99.90;;;;;;4848271;29;20466;-77
2021/07/16 03:49:14;;;;;;;15.90;6.60;;;18.80;99.90;;;;;;4842768;29;20471;-78
2021/07/16 03:51:39;;;;;;;8.30;7.30;;;18.80;99.90;;;;;;4814475;29;20235;-78
2021/07/16 03:54:08;;;;;;;8.50;6.53;;;18.80;99.90;;;;;;4827557;29;20238;-78
2021/07/16 03:56:34;;;;;;;7.30;5.50;;;18.80;99.90;;;;;;4828159;29;20231;-78
2021/07/16 03:58:59;;;;;;;10.43;6.27;;;18.80;99.90;;;;;;4815373;29;20589;-76
2021/07/16 04:01:25;;;;;;;6.10;5.43;;;18.80;99.90;;;;;;4827881;29;20231;-78
2021/07/16 04:04:06;;;;;;;7.10;5.80;;;18.80;99.90;;;;;;4827409;29;20227;-78
2021/07/16 04:06:52;;;;;;;8.83;6.87;;;18.80;99.90;;;;;;4828647;29;20633;-78
2021/07/16 04:09:26;;;;;;;11.20;6.73;;;18.80;99.90;;;;;;4844636;29;20584;-77
2021/07/16 04:12:12;;;;;;;7.30;5.70;;;18.80;99.90;;;;;;4827846;29;21017;-78
2021/07/16 04:15:26;;;;;;;8.33;6.30;;;18.80;99.90;;;;;;4826460;29;20516;-78
2021/07/16 04:22:28;;;;;;;7.97;6.50;;;18.80;99.90;;;;;;4819590;23;20506;-78
2021/07/16 04:25:31;;;;;;;6.83;6.13;;;18.80;99.90;;;;;;4877315;29;20474;-78
2021/07/16 04:28:25;;;;;;;8.50;6.90;;;18.80;99.90;;;;;;4867669;29;20497;-78
2021/07/16 04:31:22;;;;;;;8.90;7.77;;;18.80;99.90;;;;;;4862519;29;20529;-78
2021/07/16 04:33:57;;;;;;;7.33;6.10;;;18.80;99.90;;;;;;4912727;23;20510;-77
2021/07/16 04:36:24;;;;;;;8.23;7.30;;;18.80;99.90;;;;;;4816936;29;20443;-78
2021/07/16 04:38:53;;;;;;;9.23;7.17;;;18.80;99.90;;;;;;4813795;29;20441;-77
2021/07/16 04:42:07;;;;;;;9.67;7.30;;;18.80;99.90;;;;;;4826604;29;20203;-77
2021/07/16 04:44:34;;;;;;;10.30;7.73;;;18.90;99.90;;;;;;4808228;29;20465;-76
2021/07/16 04:47:01;;;;;;;8.97;6.80;;;18.90;99.90;;;;;;4824555;29;20470;-77
2021/07/16 04:49:27;;;;;;;10.83;8.50;;;18.90;99.90;;;;;;4820835;29;20473;-78
2021/07/16 04:51:53;;;;;;;9.90;7.93;;;18.90;99.90;;;;;;4826568;29;20828;-78
2021/07/16 04:54:19;;;;;;;10.77;7.40;;;18.90;99.90;;;;;;4815523;29;20488;-78
2021/07/16 04:56:46;;;;;;;8.40;7.10;;;18.90;99.90;;;;;;4809448;29;20456;-78
2021/07/16 04:59:11;;;;;;;9.53;7.13;;;18.90;99.90;;;;;;4826626;29;20460;-78
2021/07/16 05:01:43;;;;;;;8.40;6.57;;;18.90;99.90;;;;;;4823893;29;21020;-78
2021/07/16 05:04:09;;;;;;;10.07;6.97;;;18.90;99.90;;;;;;4825728;29;20471;-78
2021/07/16 05:06:37;;;;;;;7.50;6.70;;;18.90;99.90;;;;;;4833903;29;20824;-78
2021/07/16 05:09:04;;;;;;;9.63;6.47;;;18.90;99.90;;;;;;4807704;29;20484;-78
2021/07/16 05:11:36;;;;;;;7.27;6.33;;;18.90;99.90;;;;;;4795808;29;20469;-77
2021/07/16 05:14:04;;;;;;;11.40;7.50;;;18.90;99.90;;;;;;4798648;29;20472;-78
2021/07/16 05:16:39;;;;;;;11.07;8.20;;;18.90;99.90;;;;;;4836824;29;20807;-78
2021/07/16 05:19:05;;;;;;;9.90;6.77;;;18.90;99.90;;;;;;4840892;29;20991;-77
2021/07/16 05:21:33;;;;;;;9.17;7.63;;;18.90;99.90;;;;;;4808445;29;20254;-78
2021/07/16 05:24:00;;;;;;;9.53;8.10;;;18.90;99.90;;;;;;4812298;29;20465;-78
2021/07/16 05:26:27;;;;;;;10.57;7.73;;;18.90;99.90;;;;;;4828479;29;20467;-78
2021/07/16 05:28:53;;;;;;;8.97;7.30;;;18.90;99.90;;;;;;4822607;29;20487;-78
2021/07/16 05:31:19;;;;;;;11.30;9.57;;;18.90;99.90;;;;;;4852834;29;20467;-78
2021/07/16 05:33:46;;;;;;;12.13;9.37;;;19.00;99.90;;;;;;4821007;29;20348;-78
2021/07/16 05:36:51;;;;;;;11.30;8.83;;;19.00;99.90;;;;;;4771355;29;20303;-77
2021/07/16 05:39:16;;;;;;;10.63;7.83;;;19.00;99.90;;;;;;4824122;29;20477;-77
2021/07/16 05:45:39;;;;;;;11.77;8.47;;;19.00;99.90;;;;;;4795901;29;20633;-76
2021/07/16 05:49:12;;;;;;;14.17;8.70;;;19.00;99.90;;;;;;4773198;29;20490;-77
2021/07/16 05:56:09;;;;;;;;;;;;;;;;;;;;;
2021/07/16 06:03:31;;;;;;;14.07;10.50;;;19.10;99.90;;;;;;4709701;30;20544;-77
2021/07/16 06:06:09;;;;;;;11.37;8.67;;;19.10;99.90;;;;;;4676363;30;21024;-77
2021/07/16 06:09:14;;;;;;;13.67;10.60;;;19.10;99.90;;;;;;4695275;30;20880;-78
2021/07/16 06:14:46;;;;;;;18.17;10.37;;;19.10;99.90;;;;;;5391496;23;20540;-77
2021/07/16 06:26:59;;;;;;;15.53;9.40;;;19.20;99.90;;;;;;4997229;23;20538;-77
2021/07/16 06:33:31;;;;;;;14.87;10.70;;;19.30;99.90;;;;;;4910770;23;20697;-78
2021/07/16 06:43:47;;;;;;;15.63;10.70;;;19.30;99.90;;;;;;5559583;23;20498;-77
2021/07/16 06:46:50;;;;;;;15.47;11.00;;;19.40;99.90;;;;;;4829735;29;20605;-77
2021/07/16 06:49:32;;;;;;;12.33;9.67;;;19.40;99.90;;;;;;4850752;29;20471;-77
2021/07/16 06:56:09;;;;;;;14.50;9.90;;;19.40;99.90;;;;;;4785645;29;20799;-77
2021/07/16 07:10:45;;;;;;;13.10;10.23;;;19.50;99.90;;;;;;4795978;29;20557;-77
2021/07/16 07:27:06;;;;;;;8.90;7.20;;;19.60;99.90;;;;;;4877792;29;20537;-77
2021/07/16 07:29:54;;;;;;;13.43;9.37;;;19.60;99.90;;;;;;4828065;29;20532;-78
2021/07/16 07:32:36;;;;;;;15.90;10.53;;;19.60;99.90;;;;;;4833340;29;20553;-77
2021/07/16 07:38:43;;;;;;;11.70;8.50;;;19.70;99.90;;;;;;4844117;29;20956;-77
2021/07/16 07:41:56;;;;;;;10.70;8.57;;;19.70;99.90;;;;;;4825611;29;20966;-78
2021/07/16 07:44:30;;;;;;;13.40;10.00;;;19.70;99.90;;;;;;4809059;29;20528;-78
2021/07/16 07:47:15;;;;;;;12.57;10.07;;;19.70;99.90;;;;;;4825808;29;20867;-78
2021/07/16 07:53:31;;;;;;;10.90;8.80;;;19.80;99.90;;;;;;4836698;23;21025;-78
2021/07/16 07:56:00;;;;;;;14.63;9.20;;;19.80;99.90;;;;;;4876537;29;20438;-78
2021/07/16 07:58:52;;;;;;;14.37;9.20;;;19.80;99.90;;;;;;4827703;29;20995;-78
2021/07/16 08:01:43;;;;;;;12.13;9.00;;;19.90;99.90;;;;;;4847034;29;20547;-78
2021/07/16 08:04:27;;;;;;;13.33;9.63;;;19.90;99.90;;;;;;4826903;29;20450;-78
2021/07/16 08:07:19;;;;;;;14.43;9.03;;;19.90;99.90;;;;;;4778951;29;21045;-77
2021/07/16 08:09:55;;;;;;;13.60;8.67;;;19.90;99.90;;;;;;4782984;29;20544;-77
2021/07/16 08:15:24;;;;;;;11.20;9.33;;;20.00;99.90;;;;;;4866955;29;20535;-78
2021/07/16 08:18:21;;;;;;;11.20;8.23;;;20.00;99.90;;;;;;4840564;29;20467;-77
2021/07/16 08:21:30;;;;;;;10.90;8.00;;;20.00;99.90;;;;;;4856364;29;20553;-77
2021/07/16 08:23:58;;;;;;;13.10;9.20;;;20.00;99.90;;;;;;4818218;29;20479;-78
2021/07/16 08:26:30;;;;;;;10.80;9.03;;;20.00;99.90;;;;;;4784569;29;20576;-78
2021/07/16 08:29:01;;;;;;;8.97;7.50;;;20.00;99.90;;;;;;4810403;29;20487;-78
2021/07/16 08:31:27;;;;;;;12.23;7.73;;;20.10;99.90;;;;;;4815387;29;20559;-77
2021/07/16 08:33:56;;;;;;;9.67;7.50;;;20.20;99.90;;;;;;4805332;29;20468;-78
2021/07/16 08:36:28;;;;;;;9.27;7.03;;;20.10;99.90;;;;;;4820301;29;20235;-77
2021/07/16 08:39:11;;;;;;;11.37;7.10;;;20.20;99.90;;;;;;4818945;29;20487;-77
2021/07/16 08:42:27;;;;;;;9.57;6.90;;;20.20;99.90;;;;;;4854179;23;20949;-76
2021/07/16 08:45:18;;;;;;;7.70;6.27;;;20.30;99.90;;;;;;4807216;29;20519;-77
2021/07/16 08:51:32;;;;;;;8.23;6.33;;;20.40;99.90;;;;;;4844039;29;20479;-77
2021/07/16 08:54:18;;;;;;;8.30;7.17;;;20.50;99.90;;;;;;4798154;29;20963;-77
2021/07/16 08:57:37;;;;;;;4.30;3.90;;;20.50;99.90;;;;;;4775952;29;20481;-77
2021/07/16 09:00:53;;;;;;;7.77;6.00;;;20.50;99.90;;;;;;4752809;29;20541;-77
2021/07/16 09:07:37;;;;;;;4.73;3.87;;;20.60;99.90;;;;;;4745061;30;20494;-77
2021/07/16 09:10:31;;;;;;;7.17;5.97;;;20.60;99.90;;;;;;4716737;30;20464;-77
2021/07/16 09:15:37;;;;;;;6.83;6.13;;;20.70;99.90;;;;;;4851872;29;20882;-77
2021/07/16 09:18:23;;;;;;;7.03;5.70;;;20.80;99.90;;;;;;4824258;29;20436;-77
2021/07/16 09:21:22;;;;;;;8.03;7.07;;;20.80;99.90;;;;;;4816272;29;20250;-77
2021/07/16 09:24:28;;;;;;;7.10;6.20;;;20.90;99.90;;;;;;4818448;29;20506;-77
2021/07/16 09:26:54;;;;;;;9.17;8.17;;;21.00;99.90;;;;;;4817352;29;20873;-77
2021/07/16 09:29:54;;;;;;;9.17;5.97;;;21.00;99.90;;;;;;4779129;29;20486;-77
2021/07/16 09:32:25;;;;;;;8.10;6.57;;;21.00;99.90;;;;;;4754277;30;20217;-77
2021/07/16 09:35:19;;;;;;;7.47;6.20;;;21.00;99.90;;;;;;4728376;30;20472;-77
2021/07/16 09:38:08;;;;;;;8.60;6.87;;;21.00;99.90;;;;;;4744275;30;20992;-77
2021/07/16 09:41:09;;;;;;;8.63;6.60;;;21.00;99.90;;;;;;4745722;30;21065;-80
2021/07/16 09:43:35;;;;;;;7.00;6.30;;;21.10;99.90;;;;;;4870567;23;20519;-77
2021/07/16 09:46:29;;;;;;;6.30;5.57;;;21.10;99.90;;;;;;4872601;29;20950;-77
2021/07/16 09:49:34;;;;;;;11.27;7.40;;;21.20;99.90;;;;;;4871400;29;20288;-77
2021/07/16 09:52:40;;;;;;;12.43;6.20;;;21.20;99.90;;;;;;4883273;23;20501;-77
2021/07/16 09:55:37;;;;;;;8.80;6.10;;;21.20;99.90;;;;;;4795622;29;20480;-77
2021/07/16 09:58:03;;;;;;;10.07;7.27;;;21.30;99.90;;;;;;4746916;29;20556;-77
2021/07/16 10:00:55;;;;;;;8.97;6.27;;;21.30;99.90;;;;;;4769253;29;20561;-77
2021/07/16 10:03:23;;;;;;;9.40;8.03;;;21.30;99.90;;;;;;4779474;29;20229;-79
2021/07/16 10:06:39;;;;;;;8.40;6.47;;;21.30;99.90;;;;;;4805650;29;20501;-79
2021/07/16 10:09:05;;;;;;;14.53;8.10;;;21.30;99.90;;;;;;4813467;29;20495;-80
2021/07/16 10:14:19;;;;;;;8.30;7.40;;;21.20;99.90;;;;;;5229268;23;20514;-77
2021/07/16 10:17:04;;;;;;;10.20;6.97;;;21.20;99.90;;;;;;4835227;29;20524;-77
2021/07/16 10:20:18;;;;;;;10.20;8.93;;;21.10;99.90;;;;;;4855192;29;20468;-79
2021/07/16 10:23:26;;;;;;;11.13;7.50;;;21.10;99.90;;;;;;4842909;29;20459;-79
2021/07/16 10:26:31;;;;;;;8.63;7.73;;;21.10;99.90;;;;;;4825954;29;20479;-78
2021/07/16 10:29:25;;;;;;;8.53;6.93;;;21.10;99.90;;;;;;4818105;29;20505;-78
2021/07/16 10:32:29;;;;;;;7.43;6.63;;;21.10;99.90;;;;;;4885934;23;20472;-78
2021/07/16 10:35:41;;;;;;;9.67;7.23;;;21.10;99.90;;;;;;4802445;29;20493;-78
2021/07/16 10:38:34;;;;;;;8.43;7.57;;;21.00;99.90;;;;;;4786160;29;20569;-78
2021/07/16 10:44:49;;;;;;;9.13;7.43;;;21.00;99.90;;;;;;4882048;29;20524;-77
2021/07/16 10:48:22;;;;;;;6.80;6.10;;;21.10;99.90;;;;;;4819293;29;20467;-77
2021/07/16 10:51:07;;;;;;;11.07;7.43;;;21.10;99.90;;;;;;4759069;29;20538;-77
2021/07/16 10:54:04;;;;;;;10.33;6.97;;;21.10;99.90;;;;;;4782590;29;20469;-78
2021/07/16 10:56:48;;;;;;;7.57;6.77;;;21.10;99.90;;;;;;4763998;29;20471;-77
2021/07/16 10:59:42;;;;;;;11.00;7.43;;;21.10;99.90;;;;;;4750277;30;20471;-78
2021/07/16 11:06:46;;;;;;;6.00;5.37;;;21.20;99.90;;;;;;4691769;30;20870;-77
2021/07/16 11:12:54;;;;;;;9.40;5.47;;;21.30;99.90;;;;;;4641343;30;20548;-77
2021/07/16 11:15:45;;;;;;;7.93;7.03;;;21.30;99.90;;;;;;4673509;30;20950;-78
2021/07/16 11:18:51;;;;;;;10.03;6.30;;;21.30;99.90;;;;;;4663003;30;20445;-78
2021/07/16 11:24:24;;;;;;;8.37;6.10;;;21.40;99.90;;;;;;5028575;23;20534;-77
2021/07/16 11:27:26;;;;;;;8.23;6.07;;;21.40;99.90;;;;;;4844624;29;20438;-77
2021/07/16 11:34:01;;;;;;;6.77;5.93;;;21.20;99.90;;;;;;4839808;29;20479;-77
2021/07/16 11:37:16;;;;;;;8.07;6.47;;;21.30;99.90;;;;;;4784713;29;20567;-78
2021/07/16 11:40:04;;;;;;;7.47;6.77;;;21.30;99.90;;;;;;4801717;29;20458;-77
2021/07/16 11:42:48;;;;;;;8.07;6.67;;;21.20;99.90;;;;;;4827543;29;20497;-78
2021/07/16 11:49:23;;;;;;;10.50;7.33;;;21.20;99.90;;;;;;4836086;29;20511;-78
2021/07/16 11:52:55;;;;;;;11.60;6.37;;;21.10;99.90;;;;;;4756160;30;20494;-78
2021/07/16 12:00:33;;;;;;;8.07;6.60;;;21.10;99.90;;;;;;4718987;30;20496;-77
2021/07/16 12:03:21;;;;;;;9.43;7.87;;;21.10;99.90;;;;;;4729405;30;21017;-77
2021/07/16 12:13:46;;;;;;;7.63;6.83;;;21.40;99.90;;;;;;4937531;23;20925;-78
2021/07/16 12:31:58;;;;;;;8.80;7.10;;;21.70;99.90;;;;;;4873829;23;20442;-77
2021/07/16 12:55:23;;;;;;;7.70;6.90;;;22.00;99.90;;;;;;5860770;23;20732;-77
2021/07/16 13:15:07;;;;;;;10.63;8.80;;;22.00;99.90;;;;;;5315292;23;20520;-79
2021/07/16 13:17:45;;;;;;;10.43;8.10;;;22.10;99.90;;;;;;4849917;29;20456;-80
2021/07/16 13:27:02;;;;;;;11.27;8.50;;;22.30;99.90;;;;;;5022701;23;20958;-77
2021/07/16 13:33:28;;;;;;;10.80;7.80;;;22.50;99.90;;;;;;4968628;23;20484;-80
2021/07/16 13:36:50;;;;;;;9.53;7.87;;;22.70;99.90;;;;;;4866261;29;20521;-80
2021/07/16 13:39:41;;;;;;;9.57;7.60;;;22.70;99.90;;;;;;4866341;29;20449;-80
2021/07/16 13:42:39;;;;;;;8.27;7.30;;;22.80;99.90;;;;;;5088379;23;20423;-79
2021/07/16 13:45:08;;;;;;;11.57;8.47;;;22.70;99.90;;;;;;4815248;29;20668;-79
2021/07/16 13:52:08;;;;;;;9.57;8.00;;;22.60;99.90;;;;;;4857093;29;20475;-79
2021/07/16 13:55:06;;;;;;;8.67;6.33;;;22.60;99.90;;;;;;4821807;29;20455;-79
2021/07/16 14:08:50;;;;;;;8.73;7.60;;;22.90;99.90;;;;;;4819185;29;20997;-78
2021/07/16 14:14:16;;;;;;;9.00;7.73;;;22.90;99.90;;;;;;5371839;23;20526;-78
2021/07/16 14:21:01;;;;;;;9.17;8.23;;;23.00;99.90;;;;;;4874779;29;20414;-78
2021/07/16 14:27:22;;;;;;;9.37;8.37;;;22.90;99.90;;;;;;4873928;29;20425;-78
2021/07/16 14:30:16;;;;;;;8.97;7.53;;;22.90;99.90;;;;;;4842267;29;20959;-78
2021/07/16 14:32:58;;;;;;;9.77;7.53;;;23.10;99.90;;;;;;4831756;29;20482;-77
2021/07/16 14:39:18;;;;;;;8.50;7.20;;;23.40;99.90;;;;;;4869794;29;20464;-78
2021/07/16 14:44:44;;;;;;;8.40;6.80;;;23.40;99.90;;;;;;5247441;23;21034;-80
2021/07/16 14:57:31;;;;;;;7.73;6.90;;;23.10;99.90;;;;;;4841637;29;20427;-77
2021/07/16 15:04:02;;;;;;;9.10;6.93;;;23.00;99.90;;;;;;4885605;29;20438;-77
2021/07/16 15:14:20;;;;;;;10.43;8.30;;;23.10;99.90;;;;;;4876111;23;20569;-79
2021/07/16 15:21:09;;;;;;;6.57;5.87;;;23.20;99.90;;;;;;4869418;29;21240;-78
2021/07/16 15:26:19;;;;;;;8.73;7.03;;;23.00;99.90;;;;;;4882617;24;20987;-79
2021/07/16 15:33:16;;;;;;;7.47;5.90;;;23.00;99.90;;;;;;4882852;29;20465;-79
2021/07/16 15:39:44;;;;;;;11.87;8.00;;;23.00;99.90;;;;;;4862665;29;20469;-79
2021/07/16 15:49:10;;;;;;;5.00;4.47;;;23.00;99.90;;;;;;4857326;29;20489;-78
2021/07/16 16:07:34;;;;;;;8.43;7.53;;;22.80;99.90;;;;;;4879206;29;20470;-78
2021/07/16 16:14:09;;;;;;;11.27;7.50;;;22.80;99.90;;;;;;5461490;23;20500;-78
2021/07/16 16:21:21;;;;;;;10.30;8.70;;;22.80;99.90;;;;;;4813729;29;20417;-78
2021/07/16 16:45:29;;;;;;;12.37;8.83;;;22.50;99.90;;;;;;4865690;29;20502;-78
2021/07/16 16:55:30;;;;;;;11.90;8.57;;;22.30;99.90;;;;;;4802198;29;21034;-78
2021/07/16 17:06:48;;;;;;;16.20;10.07;;;22.40;99.90;;;;;;4722683;30;20453;-78
2021/07/16 17:09:37;;;;;;;12.93;11.63;;;22.50;99.90;;;;;;4666147;30;20589;-78
2021/07/16 17:36:52;;;;;;;10.90;8.60;;;22.20;99.90;;;;;;4863301;29;20453;-79
2021/07/16 17:46:39;;;;;;;14.00;9.90;;;22.30;99.90;;;;;;4851420;29;20595;-79
2021/07/16 17:49:49;;;;;;;11.40;8.97;;;22.30;99.90;;;;;;4861966;29;20488;-79
2021/07/16 17:56:02;;;;;;;12.20;9.43;;;22.30;99.90;;;;;;4829585;29;20423;-78
2021/07/16 18:02:23;;;;;;;10.30;8.00;;;22.30;99.90;;;;;;4862222;29;20647;-79
2021/07/16 18:12:51;;;;;;;10.13;7.63;;;22.30;99.90;;;;;;5192458;23;20508;-80
2021/07/16 18:19:05;;;;;;;11.00;8.73;;;22.20;99.90;;;;;;4866145;29;20409;-79
2021/07/16 18:21:30;;;;;;;11.47;9.50;;;22.20;99.90;;;;;;4840221;29;20791;-79
2021/07/16 18:23:58;;;;;;;13.57;8.07;;;22.10;99.90;;;;;;4838012;29;20432;-78
2021/07/16 18:26:39;;;;;;;14.33;8.63;;;21.90;99.90;;;;;;4801565;29;20211;-79
2021/07/16 18:40:49;;;;;;;17.07;10.17;;;21.90;99.90;;;;;;4747926;29;20451;-79
2021/07/16 18:51:19;;;;;;;14.30;9.50;;;21.80;99.90;;;;;;4790717;29;20441;-78
2021/07/16 19:01:15;;;;;;;13.77;10.00;;;21.70;99.90;;;;;;4825431;29;20479;-79
2021/07/16 19:07:57;;;;;;;14.90;11.17;;;21.60;99.90;;;;;;4750283;30;20491;-79
2021/07/16 19:14:08;;;;;;;16.30;11.53;;;21.40;99.90;;;;;;4932816;23;20590;-78
2021/07/16 19:20:38;;;;;;;17.17;12.80;;;21.30;99.90;;;;;;4872066;29;20602;-79
2021/07/16 19:31:19;;;;;;;20.07;12.87;;;21.10;99.90;;;;;;4801031;29;20998;-78
2021/07/16 19:37:45;;;;;;;19.57;12.67;;;21.10;99.90;;;;;;4826279;29;20545;-79
2021/07/16 19:40:12;;;;;;;17.07;12.67;;;21.10;99.90;;;;;;4846534;29;20475;-78
2021/07/16 19:43:05;;;;;;;16.87;12.27;;;21.10;99.90;;;;;;4824691;29;20523;-78
2021/07/16 19:45:31;;;;;;;18.27;13.30;;;21.00;99.90;;;;;;4842041;29;20463;-78
2021/07/16 19:47:56;;;;;;;18.73;13.37;;;21.00;99.90;;;;;;4828899;29;20463;-78
2021/07/16 19:50:22;;;;;;;16.77;12.57;;;21.00;99.90;;;;;;4842511;29;20339;-78
2021/07/16 19:52:49;;;;;;;18.50;12.80;;;21.00;99.90;;;;;;4847552;29;20222;-79
2021/07/16 19:55:15;;;;;;;17.10;12.87;;;21.00;99.90;;;;;;4853448;29;20455;-78
2021/07/16 19:57:41;;;;;;;22.77;14.27;;;20.90;99.90;;;;;;4861927;29;20505;-79
2021/07/16 20:00:09;;;;;;;17.70;11.60;;;20.80;99.90;;;;;;4847853;29;20486;-78
2021/07/16 20:02:38;;;;;;;20.70;14.33;;;20.80;99.90;;;;;;4859978;29;20322;-79
2021/07/16 20:05:34;;;;;;;18.63;12.10;;;20.80;99.90;;;;;;4837616;29;20464;-79
2021/07/16 20:07:59;;;;;;;20.83;13.23;;;20.80;99.90;;;;;;4828828;29;20482;-80
2021/07/16 20:10:25;;;;;;;18.40;14.20;;;20.70;99.90;;;;;;4813840;29;20461;-79
2021/07/16 20:12:51;;;;;;;19.27;14.33;;;20.60;99.90;;;;;;4839448;29;20215;-76
2021/07/16 20:15:16;;;;;;;19.47;13.20;;;20.60;99.90;;;;;;4814924;29;20222;-79
2021/07/16 20:17:42;;;;;;;21.83;14.47;;;20.70;99.90;;;;;;4813201;29;20226;-79
2021/07/16 20:20:17;;;;;;;18.17;13.17;;;20.60;99.90;;;;;;4839760;29;20369;-79
2021/07/16 20:22:47;;;;;;;17.57;13.47;;;20.60;99.90;;;;;;4835975;29;20224;-78
2021/07/16 20:25:15;;;;;;;20.90;14.20;;;20.50;99.90;;;;;;4847296;29;20471;-79
2021/07/16 20:27:42;;;;;;;17.00;13.17;;;20.50;99.90;;;;;;4816594;29;20521;-78
2021/07/16 20:30:09;;;;;;;20.17;13.60;;;20.50;99.90;;;;;;4847862;29;20486;-78
2021/07/16 20:32:35;;;;;;;18.17;13.43;;;20.60;99.90;;;;;;4856136;29;20484;-78
2021/07/16 20:35:02;;;;;;;16.00;13.73;;;20.50;99.90;;;;;;4841287;29;20461;-78
2021/07/16 20:37:33;;;;;;;22.13;13.67;;;20.50;99.90;;;;;;4839242;29;21369;-78
2021/07/16 20:40:04;;;;;;;16.30;13.23;;;20.50;99.90;;;;;;4824844;29;20948;-79
2021/07/16 20:42:30;;;;;;;19.80;13.83;;;20.60;99.90;;;;;;4840887;29;20477;-79
2021/07/16 20:44:55;;;;;;;19.40;14.47;;;20.60;99.90;;;;;;4841453;29;20454;-78
2021/07/16 20:51:26;;;;;;;15.27;12.50;;;20.60;99.90;;;;;;4800732;29;20262;-78
2021/07/16 20:53:52;;;;;;;16.97;13.17;;;20.60;99.90;;;;;;4799728;29;20508;-78
2021/07/16 20:56:17;;;;;;;17.73;12.80;;;20.60;99.90;;;;;;4840603;29;20926;-78
2021/07/16 20:58:43;;;;;;;20.60;13.73;;;20.60;99.90;;;;;;4832835;29;20309;-78
2021/07/16 21:01:09;;;;;;;19.13;13.37;;;20.60;99.90;;;;;;4834612;29;20561;-78
2021/07/16 21:03:35;;;;;;;14.10;11.80;;;20.60;99.90;;;;;;4841880;29;20230;-78
2021/07/16 21:06:53;;;;;;;19.80;13.40;;;20.60;99.90;;;;;;4844221;29;20226;-78
2021/07/16 21:10:11;;;;;;;16.27;12.10;;;20.50;99.90;;;;;;4849244;29;20325;-78
2021/07/16 21:12:37;;;;;;;20.27;14.30;;;20.50;99.90;;;;;;4766815;29;20515;-78
2021/07/16 21:15:03;;;;;;;17.00;12.90;;;20.40;99.90;;;;;;4797222;29;20482;-78
2021/07/16 21:17:29;;;;;;;21.40;12.33;;;20.40;99.90;;;;;;4809316;29;20233;-78
2021/07/16 21:19:55;;;;;;;17.80;13.73;;;20.40;99.90;;;;;;4846527;29;20590;-78
2021/07/16 21:22:20;;;;;;;17.20;13.07;;;20.40;99.90;;;;;;4839625;29;20694;-78
2021/07/16 21:24:46;;;;;;;16.00;11.93;;;20.40;99.90;;;;;;4812347;29;20256;-79
2021/07/16 21:27:12;;;;;;;15.70;12.37;;;20.40;99.90;;;;;;4840849;29;20634;-78
2021/07/16 21:29:38;;;;;;;18.60;13.57;;;20.30;99.90;;;;;;4825253;29;20905;-79
2021/07/16 21:32:04;;;;;;;17.57;12.50;;;20.30;99.90;;;;;;4828507;29;20320;-78
2021/07/16 21:34:30;;;;;;;18.37;13.43;;;20.30;99.90;;;;;;4843071;29;20226;-78
2021/07/16 21:36:56;;;;;;;16.47;12.37;;;20.20;99.90;;;;;;4844712;29;20494;-79
2021/07/16 21:39:22;;;;;;;21.30;14.17;;;20.20;99.90;;;;;;4838312;29;20506;-78
2021/07/16 21:41:47;;;;;;;19.80;13.30;;;20.20;99.90;;;;;;4845039;29;20458;-78
2021/07/16 21:44:13;;;;;;;20.37;13.43;;;20.20;99.90;;;;;;4831549;29;20231;-79
2021/07/16 21:46:39;;;;;;;17.47;14.27;;;20.10;99.90;;;;;;4836460;29;20225;-78
2021/07/16 21:49:05;;;;;;;31.77;22.70;;;20.00;99.90;;;;;;4857060;29;20242;-79
2021/07/16 21:51:31;;;;;;;20.83;16.70;;;20.00;99.90;;;;;;4841124;29;20458;-78
2021/07/16 21:53:57;;;;;;;16.60;13.60;;;20.00;99.90;;;;;;4832296;29;20214;-79
2021/07/16 21:56:22;;;;;;;20.17;16.40;;;20.00;99.90;;;;;;4831147;29;20252;-79
2021/07/16 21:58:48;;;;;;;17.57;14.40;;;20.00;99.90;;;;;;4828404;29;20254;-79
2021/07/16 22:01:14;;;;;;;21.27;14.70;;;20.00;99.90;;;;;;4812405;29;20234;-79
2021/07/16 22:03:39;;;;;;;22.47;14.60;;;19.90;99.90;;;;;;4854006;29;20254;-77
2021/07/16 22:06:05;;;;;;;20.93;13.90;;;19.90;99.90;;;;;;4820908;29;20222;-79
2021/07/16 22:08:31;;;;;;;19.80;13.50;;;19.80;99.90;;;;;;4844507;29;20246;-78
2021/07/16 22:10:57;;;;;;;19.87;13.20;;;19.80;99.90;;;;;;4838248;29;20226;-79
2021/07/16 22:13:22;;;;;;;18.77;12.70;;;19.80;99.90;;;;;;4830421;29;20230;-77
2021/07/16 22:15:49;;;;;;;18.47;13.20;;;19.80;99.90;;;;;;4848800;29;20281;-78
2021/07/16 22:18:17;;;;;;;18.30;12.87;;;19.70;99.90;;;;;;4832053;29;20716;-78
2021/07/16 22:20:43;;;;;;;19.90;13.93;;;19.70;99.90;;;;;;4810175;29;20538;-79
2021/07/16 22:23:25;;;;;;;17.80;13.40;;;19.60;99.90;;;;;;4844122;29;20235;-79
2021/07/16 22:25:59;;;;;;;17.13;13.27;;;19.60;99.90;;;;;;4868845;29;20224;-77
2021/07/16 22:28:31;;;;;;;17.90;13.53;;;19.60;99.90;;;;;;4842361;29;20875;-79
2021/07/16 22:30:58;;;;;;;17.57;13.00;;;19.60;99.90;;;;;;4823530;29;20844;-79
2021/07/16 22:33:24;;;;;;;23.30;15.03;;;19.50;99.90;;;;;;4834924;29;20463;-78
2021/07/16 22:35:50;;;;;;;18.00;13.53;;;19.50;99.90;;;;;;4827244;29;20478;-78
2021/07/16 22:38:16;;;;;;;20.27;13.83;;;19.50;99.90;;;;;;4844707;29;20461;-79
2021/07/16 22:40:41;;;;;;;21.93;13.40;;;19.40;99.90;;;;;;4844593;29;20258;-79